Time;durP1;ratioP1;P1;durP2;ratioP2;P2;SDS_P1;SDS_P2;PMS_P1;PMS_P2;Temp;Humidity;BMP_temperature;BMP_pressure;BME280_temperature;BME280_humidity;BME280_pressure;Samples;Min_cycle;Max_cycle;Signal;HPM_P1;HPM_P2
2024/01/15 00:02:01;;;;;;;;;;;;;;;3.69;66.99;100985.97;7355843;19;20259;-62
2024/01/15 00:04:26;;;;;;;;;;;;;;;3.65;67.13;100989.41;7356106;19;19919;-62
2024/01/15 00:06:51;;;;;;;;;;;;;;;3.62;67.06;100990.22;7361469;19;19919;-62
2024/01/15 00:09:16;;;;;;;;;;;;;;;3.60;67.48;100991.06;7353207;19;19923;-61
2024/01/15 00:11:42;;;;;;;;;;;;;;;3.57;67.50;100994.47;7361205;19;19914;-62
2024/01/15 00:14:08;;;;;;;;;;;;;;;3.55;67.24;100993.59;7360843;19;20251;-62
2024/01/15 00:16:33;;;;;;;;;;;;;;;3.53;67.17;100986.69;7357103;19;20559;-62
2024/01/15 00:18:58;;;;;;;;;;;;;;;3.52;67.38;100984.94;7366524;19;20601;-62
2024/01/15 00:21:23;;;;;;;;;;;;;;;3.49;67.21;100979.75;7366390;19;19914;-62
2024/01/15 00:23:49;;;;;;;;;;;;;;;3.47;67.27;100973.72;7361818;19;20451;-62
2024/01/15 00:26:15;;;;;;;;;;;;;;;3.44;67.37;100971.06;7364883;19;19915;-62
2024/01/15 00:28:40;;;;;;;;;;;;;;;3.43;67.30;100974.53;7364077;19;19930;-63
2024/01/15 00:31:05;;;;;;;;;;;;;;;3.39;67.58;100974.47;7365310;19;19911;-62
2024/01/15 00:33:30;;;;;;;;;;;;;;;3.37;67.26;100981.34;7360784;19;19927;-62
2024/01/15 00:35:56;;;;;;;;;;;;;;;3.28;67.52;100960.59;7362386;19;19935;-62
2024/01/15 00:38:21;;;;;;;;;;;;;;;3.33;67.61;100969.25;7367251;19;19914;-62
2024/01/15 00:40:46;;;;;;;;;;;;;;;3.31;67.56;100970.09;7366948;19;20303;-62
2024/01/15 00:43:12;;;;;;;;;;;;;;;3.29;67.39;100970.06;7363179;19;19950;-62
2024/01/15 00:45:37;;;;;;;;;;;;;;;3.28;67.82;100970.06;7362725;19;19919;-62
2024/01/15 00:48:03;;;;;;;;;;;;;;;3.25;67.56;100965.75;7366286;19;19925;-62
2024/01/15 00:50:28;;;;;;;;;;;;;;;3.23;67.75;100962.25;7366168;19;19953;-62
2024/01/15 00:52:53;;;;;;;;;;;;;;;3.22;67.50;100970.84;7363222;19;19936;-62
2024/01/15 00:55:19;;;;;;;;;;;;;;;3.21;67.84;100960.53;7365721;19;20351;-62
2024/01/15 00:57:44;;;;;;;;;;;;;;;3.18;67.74;100943.28;7367988;19;19919;-62
2024/01/15 01:00:09;;;;;;;;;;;;;;;3.18;67.50;100948.44;7368771;19;19951;-62
2024/01/15 01:02:35;;;;;;;;;;;;;;;3.17;67.74;100959.59;7367111;19;19978;-61
2024/01/15 01:05:00;;;;;;;;;;;;;;;3.15;67.72;100953.56;7374360;19;19923;-61
2024/01/15 01:07:25;;;;;;;;;;;;;;;3.14;67.98;100962.13;7376724;19;19923;-62
2024/01/15 01:09:51;;;;;;;;;;;;;;;3.12;67.52;100945.78;7365549;19;19914;-62
2024/01/15 01:12:16;;;;;;;;;;;;;;;3.12;67.66;100953.53;7368824;19;20700;-63
2024/01/15 01:14:41;;;;;;;;;;;;;;;3.10;67.84;100953.53;7366724;19;19923;-62
2024/01/15 01:17:07;;;;;;;;;;;;;;;3.08;67.97;100946.59;7369128;19;19919;-61
2024/01/15 01:19:32;;;;;;;;;;;;;;;3.08;67.83;100947.47;7367173;19;20336;-62
2024/01/15 01:21:57;;;;;;;;;;;;;;;3.08;68.04;100954.34;7368619;19;19923;-62
2024/01/15 01:24:22;;;;;;;;;;;;;;;3.07;67.70;100944.88;7367815;19;19955;-62
2024/01/15 01:26:48;;;;;;;;;;;;;;;3.05;68.09;100934.53;7366788;19;19937;-62
2024/01/15 01:29:14;;;;;;;;;;;;;;;3.05;68.05;100941.41;7365672;19;19919;-62
2024/01/15 01:31:42;;;;;;;;;;;;;;;3.04;67.94;100937.97;7369621;19;19911;-62
2024/01/15 01:34:07;;;;;;;;;;;;;;;3.03;67.81;100941.38;7368774;19;20385;-63
2024/01/15 01:36:33;;;;;;;;;;;;;;;3.03;67.81;100938.81;7362410;19;19911;-62
2024/01/15 01:38:58;;;;;;;;;;;;;;;3.01;68.26;100924.16;7368181;19;20886;-62
2024/01/15 01:41:24;;;;;;;;;;;;;;;3.01;67.77;100934.47;7365496;19;20195;-62
2024/01/15 01:43:49;;;;;;;;;;;;;;;3.00;68.04;100938.78;7367205;19;19926;-62
2024/01/15 01:46:15;;;;;;;;;;;;;;;3.00;68.02;100937.91;7370366;19;19923;-62
2024/01/15 01:48:41;;;;;;;;;;;;;;;3.00;68.09;100937.91;7365446;19;19925;-62
2024/01/15 01:51:07;;;;;;;;;;;;;;;2.97;68.12;100932.72;7365255;19;19919;-62
2024/01/15 01:53:34;;;;;;;;;;;;;;;2.97;68.30;100932.72;7364510;19;19933;-62
2024/01/15 01:56:00;;;;;;;;;;;;;;;2.96;68.10;100926.69;7368254;19;20312;-62
2024/01/15 01:58:27;;;;;;;;;;;;;;;2.95;68.39;100929.25;7364548;19;19923;-62
2024/01/15 02:00:53;;;;;;;;;;;;;;;2.94;68.03;100927.50;7365895;19;20387;-62
2024/01/15 02:03:18;;;;;;;;;;;;;;;2.92;67.94;100934.38;7368772;19;19929;-62
2024/01/15 02:05:44;;;;;;;;;;;;;;;2.91;67.99;100932.66;7365046;19;20365;-62
2024/01/15 02:08:10;;;;;;;;;;;;;;;2.90;68.08;100923.19;7366564;19;20277;-62
2024/01/15 02:10:35;;;;;;;;;;;;;;;2.88;68.07;100923.13;7363049;19;20611;-62
2024/01/15 02:13:00;;;;;;;;;;;;;;;2.88;68.44;100922.28;7368323;19;19927;-62
2024/01/15 02:15:25;;;;;;;;;;;;;;;2.85;68.28;100929.13;7361635;19;19919;-62
2024/01/15 02:17:57;;;;;;;;;;;;;;;2.84;68.11;100911.94;7358088;19;19930;-63
2024/01/15 02:20:22;;;;;;;;;;;;;;;2.83;68.03;100917.91;7367841;19;19964;-62
2024/01/15 02:22:47;;;;;;;;;;;;;;;2.81;68.32;100919.63;7362327;19;19919;-62
2024/01/15 02:25:12;;;;;;;;;;;;;;;2.81;68.25;100921.34;7366949;19;19914;-62
2024/01/15 02:27:38;;;;;;;;;;;;;;;2.79;68.17;100918.75;7363593;19;19914;-62
2024/01/15 02:30:03;;;;;;;;;;;;;;;2.78;68.29;100914.41;7368870;19;20694;-62
2024/01/15 02:32:29;;;;;;;;;;;;;;;2.77;68.39;100910.13;7366275;19;19919;-62
2024/01/15 02:34:55;;;;;;;;;;;;;;;2.75;68.40;100916.97;7366196;19;19950;-62
2024/01/15 02:37:21;;;;;;;;;;;;;;;2.75;68.26;100916.13;7364224;19;19923;-61
2024/01/15 02:39:46;;;;;;;;;;;;;;;2.73;68.36;100912.63;7354679;19;19919;-62
2024/01/15 02:42:11;;;;;;;;;;;;;;;2.73;68.19;100922.94;7364308;19;20324;-62
2024/01/15 02:44:36;;;;;;;;;;;;;;;2.71;68.25;100915.19;7362087;19;19922;-62
2024/01/15 02:47:02;;;;;;;;;;;;;;;2.70;68.55;100913.47;7364486;19;19921;-62
2024/01/15 02:49:27;;;;;;;;;;;;;;;2.70;68.37;100912.63;7361541;19;19918;-62
2024/01/15 02:51:52;;;;;;;;;;;;;;;2.69;68.71;100903.16;7364155;19;19962;-62
2024/01/15 02:54:17;;;;;;;;;;;;;;;2.68;68.55;100906.56;7364155;19;19934;-62
2024/01/15 02:56:43;;;;;;;;;;;;;;;2.66;68.86;100901.38;7363095;19;20015;-62
2024/01/15 02:59:08;;;;;;;;;;;;;;;2.65;68.44;100903.97;7364399;19;19919;-62
2024/01/15 03:01:33;;;;;;;;;;;;;;;2.63;68.69;100901.34;7367132;19;19919;-63
2024/01/15 03:03:58;;;;;;;;;;;;;;;2.63;68.62;100911.66;7364962;19;19929;-62
2024/01/15 03:06:24;;;;;;;;;;;;;;;2.63;68.86;100910.78;7361675;19;19919;-62
2024/01/15 03:08:49;;;;;;;;;;;;;;;2.61;68.45;100913.34;7362588;19;19948;-61
2024/01/15 03:11:14;;;;;;;;;;;;;;;2.60;68.51;100916.78;7362164;19;19921;-61
2024/01/15 03:13:39;;;;;;;;;;;;;;;2.60;68.50;100916.78;7365780;19;19919;-62
2024/01/15 03:16:05;;;;;;;;;;;;;;;2.59;68.79;100915.06;7361587;19;20203;-62
2024/01/15 03:18:30;;;;;;;;;;;;;;;2.57;68.58;100906.41;7364471;19;19918;-62
2024/01/15 03:20:55;;;;;;;;;;;;;;;2.57;68.48;100911.56;7365101;19;19918;-62
2024/01/15 03:23:21;;;;;;;;;;;;;;;2.56;68.92;100917.59;7363161;19;19931;-62
2024/01/15 03:25:46;;;;;;;;;;;;;;;2.55;68.76;100913.28;7366369;19;19919;-62
2024/01/15 03:28:11;;;;;;;;;;;;;;;2.54;68.96;100911.56;7363293;19;20515;-62
2024/01/15 03:30:37;;;;;;;;;;;;;;;2.53;68.72;100912.38;7363092;19;19918;-62
2024/01/15 03:33:02;;;;;;;;;;;;;;;2.52;68.55;100902.91;7364403;19;19942;-62
2024/01/15 03:35:29;;;;;;;;;;;;;;;2.51;68.70;100903.75;7358894;19;19919;-62
2024/01/15 03:37:54;;;;;;;;;;;;;;;2.50;68.68;100900.31;7365301;19;20331;-62
2024/01/15 03:40:19;;;;;;;;;;;;;;;2.49;68.92;100902.91;7359175;19;19935;-62
2024/01/15 03:42:45;;;;;;;;;;;;;;;2.48;68.54;100906.28;7358451;19;19915;-62
2024/01/15 03:45:10;;;;;;;;;;;;;;;2.47;68.67;100912.28;7362620;19;19914;-61
2024/01/15 03:47:35;;;;;;;;;;;;;;;2.46;68.79;100908.84;7364658;19;19927;-62
2024/01/15 03:50:00;;;;;;;;;;;;;;;2.46;68.70;100897.69;7345238;19;19931;-61
2024/01/15 03:52:25;;;;;;;;;;;;;;;2.43;68.73;100892.47;7331947;19;20378;-61
2024/01/15 03:54:51;;;;;;;;;;;;;;;2.42;69.01;100893.31;7358872;19;20691;-62
2024/01/15 03:57:16;;;;;;;;;;;;;;;2.42;68.84;100890.75;7365499;19;19946;-62
2024/01/15 03:59:41;;;;;;;;;;;;;;;2.40;68.85;100888.16;7363657;19;19950;-63
2024/01/15 04:02:07;;;;;;;;;;;;;;;2.39;69.04;100893.31;7358726;19;19922;-62
2024/01/15 04:04:32;;;;;;;;;;;;;;;2.37;68.91;100893.25;7362049;19;19944;-61
2024/01/15 04:06:57;;;;;;;;;;;;;;;2.36;68.89;100885.53;7361254;19;19927;-62
2024/01/15 04:09:22;;;;;;;;;;;;;;;2.34;68.67;100888.09;7363725;19;19925;-62
2024/01/15 04:11:48;;;;;;;;;;;;;;;2.32;68.69;100897.47;7361173;19;19922;-62
2024/01/15 04:14:13;;;;;;;;;;;;;;;2.30;68.88;100897.47;7363160;19;19946;-62
2024/01/15 04:16:38;;;;;;;;;;;;;;;2.29;68.68;100895.75;7356641;19;19936;-62
2024/01/15 04:19:03;;;;;;;;;;;;;;;2.28;69.06;100899.19;7331163;19;20254;-62
2024/01/15 04:21:29;;;;;;;;;;;;;;;2.27;69.08;100897.41;7358599;19;19914;-62
2024/01/15 04:23:54;;;;;;;;;;;;;;;2.26;68.93;100900.84;7362731;19;19931;-62
2024/01/15 04:26:19;;;;;;;;;;;;;;;2.26;69.27;100903.41;7356292;19;19958;-62
2024/01/15 04:28:44;;;;;;;;;;;;;;;2.24;68.89;100892.25;7361841;19;19928;-62
2024/01/15 04:31:09;;;;;;;;;;;;;;;2.23;69.11;100897.34;7368609;19;19922;-61
2024/01/15 04:33:35;;;;;;;;;;;;;;;2.21;69.03;100887.03;7364150;19;20527;-62
2024/01/15 04:36:04;;;;;;;;;;;;;;;2.20;69.21;100890.47;7358293;19;19923;-62
2024/01/15 04:38:29;;;;;;;;;;;;;;;2.18;69.19;100902.47;7364289;19;19926;-62
2024/01/15 04:40:54;;;;;;;;;;;;;;;2.18;68.82;100897.31;7363176;19;20633;-62
2024/01/15 04:43:19;;;;;;;;;;;;;;;2.16;68.78;100904.13;7366255;19;19918;-62
2024/01/15 04:45:45;;;;;;;;;;;;;;;2.15;68.80;100892.09;7361556;19;19953;-62
2024/01/15 04:48:10;;;;;;;;;;;;;;;2.13;69.19;100883.50;7362202;19;19919;-62
2024/01/15 04:50:35;;;;;;;;;;;;;;;2.06;69.02;100866.19;7359914;19;19919;-62
2024/01/15 04:53:00;;;;;;;;;;;;;;;2.11;68.84;100879.16;7361532;19;20011;-62
2024/01/15 04:55:25;;;;;;;;;;;;;;;2.10;68.90;100888.59;7360035;19;19915;-61
2024/01/15 04:57:51;;;;;;;;;;;;;;;2.08;68.98;100890.28;7359515;19;19922;-62
2024/01/15 05:00:16;;;;;;;;;;;;;;;2.04;69.09;100893.66;7360433;19;20407;-62
2024/01/15 05:02:41;;;;;;;;;;;;;;;2.04;69.11;100903.97;7360444;19;20002;-62
2024/01/15 05:05:07;;;;;;;;;;;;;;;2.01;69.23;100924.50;7377177;19;19933;-62
2024/01/15 05:07:32;;;;;;;;;;;;;;;2.00;69.07;100940.81;7360861;19;19933;-62
2024/01/15 05:09:57;;;;;;;;;;;;;;;1.95;69.15;100935.59;7370308;19;19946;-63
2024/01/15 05:12:23;;;;;;;;;;;;;;;1.93;69.41;100934.69;7368447;19;20773;-62
2024/01/15 05:14:48;;;;;;;;;;;;;;;1.92;69.30;100929.50;7365946;19;19929;-62
2024/01/15 05:17:13;;;;;;;;;;;;;;;1.89;69.42;100924.31;7369394;19;19930;-62
2024/01/15 05:19:39;;;;;;;;;;;;;;;1.88;69.43;100914.88;7363661;19;19922;-62
2024/01/15 05:22:04;;;;;;;;;;;;;;;1.86;69.29;100908.81;7369280;19;19930;-62
2024/01/15 05:24:29;;;;;;;;;;;;;;;1.85;69.37;100904.50;7363115;19;19943;-62
2024/01/15 05:26:54;;;;;;;;;;;;;;;1.83;69.00;100895.91;7368727;19;19915;-62
2024/01/15 05:29:20;;;;;;;;;;;;;;;1.81;69.21;100896.72;7366238;19;19914;-62
2024/01/15 05:31:45;;;;;;;;;;;;;;;1.79;69.45;100913.88;7373346;19;19921;-62
2024/01/15 05:34:10;;;;;;;;;;;;;;;1.78;69.36;100922.44;7367361;19;20308;-62
2024/01/15 05:36:35;;;;;;;;;;;;;;;1.77;69.09;100935.28;7362444;19;19927;-62
2024/01/15 05:39:01;;;;;;;;;;;;;;;1.75;69.30;100945.56;7365558;19;19921;-62
2024/01/15 05:41:26;;;;;;;;;;;;;;;1.74;69.32;100935.22;7361410;19;19925;-62
2024/01/15 05:43:51;;;;;;;;;;;;;;;1.73;69.23;100936.09;7365722;19;19930;-62
2024/01/15 05:46:17;;;;;;;;;;;;;;;1.70;69.39;100924.00;7364029;19;20688;-62
2024/01/15 05:48:42;;;;;;;;;;;;;;;1.69;69.22;100917.13;7364989;19;19926;-62
2024/01/15 05:51:07;;;;;;;;;;;;;;;1.67;69.34;100908.50;7368320;19;19980;-63
2024/01/15 05:53:32;;;;;;;;;;;;;;;1.65;69.13;100909.34;7367447;19;19930;-63
2024/01/15 05:55:58;;;;;;;;;;;;;;;1.64;69.52;100910.19;7359697;19;19998;-62
2024/01/15 05:58:23;;;;;;;;;;;;;;;1.62;69.24;100915.28;7368721;19;19923;-62
2024/01/15 06:00:49;;;;;;;;;;;;;;;1.60;69.54;100929.84;7368078;19;19982;-62
2024/01/15 06:03:15;;;;;;;;;;;;;;;1.59;69.78;100935.84;7372056;19;19915;-62
2024/01/15 06:05:40;;;;;;;;;;;;;;;1.57;69.45;100947.78;7366751;19;20356;-62
2024/01/15 06:08:05;;;;;;;;;;;;;;;1.57;69.30;100947.78;7364995;19;20651;-63
2024/01/15 06:10:30;;;;;;;;;;;;;;;1.53;69.57;100946.03;7367720;19;19921;-62
2024/01/15 06:12:56;;;;;;;;;;;;;;;1.53;69.64;100951.19;7361861;19;19923;-62
2024/01/15 06:15:21;;;;;;;;;;;;;;;1.50;69.30;100940.81;7369381;19;19934;-62
2024/01/15 06:17:46;;;;;;;;;;;;;;;1.48;69.72;100937.34;7373813;19;20351;-62
2024/01/15 06:20:12;;;;;;;;;;;;;;;1.49;69.25;100939.09;7371012;19;19915;-62
2024/01/15 06:22:39;;;;;;;;;;;;;;;1.35;69.27;100914.81;7363075;19;19926;-62
2024/01/15 06:25:05;;;;;;;;;;;;;;;1.45;69.43;100932.16;7360192;19;20439;-62
2024/01/15 06:27:30;;;;;;;;;;;;;;;1.44;69.80;100930.41;7366445;19;20308;-62
2024/01/15 06:29:56;;;;;;;;;;;;;;;1.44;69.80;100940.72;7366936;19;19922;-62
2024/01/15 06:32:21;;;;;;;;;;;;;;;1.42;69.57;100942.38;7364635;19;19939;-62
2024/01/15 06:34:46;;;;;;;;;;;;;;;1.41;69.83;100940.63;7372008;19;19915;-62
2024/01/15 06:37:12;;;;;;;;;;;;;;;1.40;69.83;100939.78;7369982;19;20420;-62
2024/01/15 06:39:37;;;;;;;;;;;;;;;1.38;69.52;100944.03;7362552;19;20541;-61
2024/01/15 06:42:02;;;;;;;;;;;;;;;1.38;69.84;100943.19;7365371;19;20015;-62
2024/01/15 06:44:27;;;;;;;;;;;;;;;1.35;69.78;100940.53;7366369;19;20242;-62
2024/01/15 06:46:57;;;;;;;;;;;;;;;1.34;69.82;100936.22;7365211;19;19922;-62
2024/01/15 06:49:22;;;;;;;;;;;;;;;1.32;69.65;100943.03;7361117;19;19933;-62
2024/01/15 06:51:47;;;;;;;;;;;;;;;1.29;69.35;100937.00;7361819;19;19934;-62
2024/01/15 06:54:12;;;;;;;;;;;;;;;1.27;69.80;100933.56;7363150;19;19926;-62
2024/01/15 06:56:38;;;;;;;;;;;;;;;1.25;69.27;100930.06;7366497;19;20419;-62
2024/01/15 06:59:03;;;;;;;;;;;;;;;1.23;69.39;100942.03;7362529;19;20463;-63
2024/01/15 07:01:29;;;;;;;;;;;;;;;1.21;69.62;100951.41;7368907;19;19926;-62
2024/01/15 07:03:54;;;;;;;;;;;;;;;1.20;69.46;100956.53;7367968;19;20284;-62
2024/01/15 07:06:19;;;;;;;;;;;;;;;1.18;69.58;100959.09;7363592;19;19921;-62
2024/01/15 07:08:46;;;;;;;;;;;;;;;1.17;69.68;100957.38;7362630;19;20662;-62
2024/01/15 07:11:11;;;;;;;;;;;;;;;1.16;69.57;100959.88;7355259;19;19911;-62
2024/01/15 07:13:37;;;;;;;;;;;;;;;1.13;69.85;100955.56;7364841;19;19926;-62
2024/01/15 07:16:03;;;;;;;;;;;;;;;1.12;69.72;100964.13;7351756;19;19919;-62
2024/01/15 07:18:28;;;;;;;;;;;;;;;1.11;69.38;100966.66;7363026;19;19941;-62
2024/01/15 07:20:53;;;;;;;;;;;;;;;1.09;69.76;100969.19;7363105;19;19997;-62
2024/01/15 07:23:18;;;;;;;;;;;;;;;1.07;69.45;100964.88;7365109;19;20358;-61
2024/01/15 07:25:43;;;;;;;;;;;;;;;1.05;69.76;100967.41;7367996;19;19919;-62
2024/01/15 07:28:09;;;;;;;;;;;;;;;1.03;69.76;100969.09;7371881;19;19952;-62
2024/01/15 07:30:35;;;;;;;;;;;;;;;1.01;69.72;100960.44;7367894;19;19923;-62
2024/01/15 07:33:00;;;;;;;;;;;;;;;1.00;69.55;100963.84;7367001;19;19982;-62
2024/01/15 07:35:25;;;;;;;;;;;;;;;0.98;69.47;100968.13;7358887;19;20365;-62
2024/01/15 07:37:51;;;;;;;;;;;;;;;0.97;69.47;100968.97;7361915;19;20523;-62
2024/01/15 07:40:16;;;;;;;;;;;;;;;0.96;69.89;100972.34;7350047;19;20233;-62
2024/01/15 07:42:42;;;;;;;;;;;;;;;0.96;69.74;100982.63;7357171;19;19923;-63
2024/01/15 07:45:08;;;;;;;;;;;;;;;0.94;69.73;100979.16;7359989;19;19946;-64
2024/01/15 07:47:33;;;;;;;;;;;;;;;0.94;70.07;100994.59;7356182;19;19919;-64
2024/01/15 07:49:58;;;;;;;;;;;;;;;0.94;69.87;100990.31;7358096;19;19945;-62
2024/01/15 07:52:24;;;;;;;;;;;;;;;0.96;70.01;100982.63;7362956;19;19934;-64
2024/01/15 07:54:49;;;;;;;;;;;;;;;0.98;70.26;100998.97;7360996;19;20363;-64
2024/01/15 07:57:14;;;;;;;;;;;;;;;1.00;70.01;101000.72;7354808;19;19923;-64
2024/01/15 07:59:40;;;;;;;;;;;;;;;1.05;70.22;100993.09;7348790;19;19925;-64
2024/01/15 08:02:05;;;;;;;;;;;;;;;1.07;69.96;100981.16;7363571;19;19943;-63
2024/01/15 08:04:30;;;;;;;;;;;;;;;1.11;70.20;100982.94;7357384;19;19949;-64
2024/01/15 08:06:56;;;;;;;;;;;;;;;1.13;70.07;100981.28;7362642;19;19926;-64
2024/01/15 08:09:22;;;;;;;;;;;;;;;1.18;70.24;100979.69;7354242;19;19922;-64
2024/01/15 08:11:47;;;;;;;;;;;;;;;1.20;70.15;100977.97;7363621;19;20383;-64
2024/01/15 08:14:13;;;;;;;;;;;;;;;1.21;70.12;100974.56;7358339;19;21090;-64
2024/01/15 08:16:38;;;;;;;;;;;;;;;1.23;70.06;100987.47;7366271;19;19958;-64
2024/01/15 08:19:04;;;;;;;;;;;;;;;1.21;69.93;100992.56;7364667;19;19939;-64
2024/01/15 08:21:30;;;;;;;;;;;;;;;1.22;70.19;100990.91;7361613;19;20470;-64
2024/01/15 08:23:58;;;;;;;;;;;;;;;1.19;70.12;101001.97;7361058;19;19935;-63
2024/01/15 08:26:23;;;;;;;;;;;;;;;1.18;69.68;101005.41;7362000;19;19949;-64
2024/01/15 08:28:49;;;;;;;;;;;;;;;1.17;69.80;101008.81;7361438;19;19922;-64
2024/01/15 08:31:14;;;;;;;;;;;;;;;1.16;69.89;101006.19;7365711;19;19919;-64
2024/01/15 08:33:39;;;;;;;;;;;;;;;1.13;70.10;101001.84;7356774;19;19926;-64
2024/01/15 08:36:05;;;;;;;;;;;;;;;1.12;70.14;101002.72;7354291;19;19919;-64
2024/01/15 08:38:30;;;;;;;;;;;;;;;1.10;69.81;100993.19;7357030;19;19935;-64
2024/01/15 08:40:58;;;;;;;;;;;;;;;1.08;69.76;100998.31;7371410;19;19947;-64
2024/01/15 08:43:24;;;;;;;;;;;;;;;1.07;70.21;100999.16;7365814;19;20814;-64
2024/01/15 08:45:49;;;;;;;;;;;;;;;1.07;69.91;100998.31;7365167;19;19921;-64
2024/01/15 08:48:14;;;;;;;;;;;;;;;1.06;69.71;100999.97;7366111;19;20344;-64
2024/01/15 08:50:39;;;;;;;;;;;;;;;1.05;70.24;101011.09;7368543;19;19918;-64
2024/01/15 08:53:05;;;;;;;;;;;;;;;1.03;69.95;101018.81;7338415;19;19915;-64
2024/01/15 08:55:30;;;;;;;;;;;;;;;1.03;70.12;101016.22;7360561;19;19936;-64
2024/01/15 08:57:56;;;;;;;;;;;;;;;1.03;69.87;101021.38;7370167;19;20179;-64
2024/01/15 09:00:21;;;;;;;;;;;;;;;1.03;69.87;101031.66;7363222;19;19927;-64
2024/01/15 09:02:46;;;;;;;;;;;;;;;1.04;70.01;101035.09;7370247;19;19919;-64
2024/01/15 09:05:12;;;;;;;;;;;;;;;1.05;70.06;101029.13;7365940;19;19918;-64
2024/01/15 09:07:37;;;;;;;;;;;;;;;1.05;70.32;101018.81;7369321;19;19943;-64
2024/01/15 09:10:02;;;;;;;;;;;;;;;1.07;70.44;101016.31;7370299;19;20382;-64
2024/01/15 09:12:28;;;;;;;;;;;;;;;1.08;70.25;101012.91;7366285;19;20709;-64
2024/01/15 09:14:54;;;;;;;;;;;;;;;1.10;70.46;101006.06;7358179;19;20000;-63
2024/01/15 09:17:21;;;;;;;;;;;;;;;1.12;70.21;101009.56;7365658;19;19943;-64
2024/01/15 09:19:46;;;;;;;;;;;;;;;1.14;70.12;101024.16;7365455;19;19919;-62
2024/01/15 09:22:12;;;;;;;;;;;;;;;1.16;70.06;101026.75;7360671;19;19926;-64
2024/01/15 09:24:40;;;;;;;;;;;;;;;1.19;70.42;101045.72;7358641;19;19919;-64
2024/01/15 09:27:05;;;;;;;;;;;;;;;1.20;70.06;101047.44;7366173;19;19925;-64
2024/01/15 09:29:30;;;;;;;;;;;;;;;1.23;70.54;101044.06;7363795;19;19980;-64
2024/01/15 09:31:55;;;;;;;;;;;;;;;1.26;70.41;101047.56;7364109;19;19911;-64
2024/01/15 09:34:20;;;;;;;;;;;;;;;1.29;70.18;101039.91;7362239;19;19933;-64
2024/01/15 09:36:46;;;;;;;;;;;;;;;1.33;70.44;101048.56;7362343;19;19927;-64
2024/01/15 09:39:11;;;;;;;;;;;;;;;1.38;70.18;101043.53;7367076;19;19915;-64
2024/01/15 09:41:37;;;;;;;;;;;;;;;1.43;70.45;101041.91;7361451;19;19922;-64
2024/01/15 09:44:05;;;;;;;;;;;;;;;1.52;70.62;101042.06;7374746;19;20333;-64
2024/01/15 09:46:34;;;;;;;;;;;;;;;1.60;70.41;101035.38;7364075;19;20006;-64
2024/01/15 09:48:59;;;;;;;;;;;;;;;1.71;70.54;101036.44;7362470;19;19943;-64
2024/01/15 09:51:25;;;;;;;;;;;;;;;1.79;70.81;101037.47;7356577;19;20339;-64
2024/01/15 09:53:50;;;;;;;;;;;;;;;1.90;70.63;101039.34;7370733;19;19929;-63
2024/01/15 09:56:16;;;;;;;;;;;;;;;1.99;70.67;101045.53;7357247;19;19922;-64
2024/01/15 09:58:42;;;;;;;;;;;;;;;2.09;70.37;101056.88;7368252;19;19963;-64
2024/01/15 10:01:08;;;;;;;;;;;;;;;2.21;70.74;101057.06;7362608;19;19967;-64
2024/01/15 10:03:33;;;;;;;;;;;;;;;2.34;70.80;101048.72;7364336;19;20340;-64
2024/01/15 10:05:59;;;;;;;;;;;;;;;2.48;71.01;101048.91;7360333;19;19931;-64
2024/01/15 10:08:25;;;;;;;;;;;;;;;2.62;70.74;101051.72;7366904;19;20694;-63
2024/01/15 10:10:50;;;;;;;;;;;;;;;2.77;71.01;101046.78;7360222;19;20721;-64
2024/01/15 10:13:15;;;;;;;;;;;;;;;2.93;71.04;101054.75;7361991;19;19915;-64
2024/01/15 10:15:42;;;;;;;;;;;;;;;3.07;71.03;101043.78;7359731;19;19917;-64
2024/01/15 10:18:08;;;;;;;;;;;;;;;3.23;70.86;101049.13;7344199;19;19927;-64
2024/01/15 10:20:33;;;;;;;;;;;;;;;3.37;70.70;101052.75;7347826;19;19921;-64
2024/01/15 10:22:58;;;;;;;;;;;;;;;3.53;70.68;101053.81;7362101;19;19919;-64
2024/01/15 10:25:25;;;;;;;;;;;;;;;3.67;70.93;101057.41;7363080;19;19914;-64
2024/01/15 10:28:04;;;;;;;;;;;;;;;3.86;70.81;101061.06;7363135;19;19923;-64
2024/01/15 10:30:29;;;;;;;;;;;;;;;4.09;70.71;101053.53;7370212;19;19923;-64
2024/01/15 10:33:02;;;;;;;;;;;;;;;4.29;70.59;101049.41;7335266;19;20671;-64
2024/01/15 10:35:30;;;;;;;;;;;;;;;4.53;70.93;101050.47;7361078;19;19919;-64
2024/01/15 10:37:55;;;;;;;;;;;;;;;4.77;70.47;101053.25;7363401;19;19919;-64
2024/01/15 10:40:21;;;;;;;;;;;;;;;5.02;70.51;101053.34;7362850;19;21329;-64
2024/01/15 10:42:47;;;;;;;;;;;;;;;5.25;70.54;101059.53;7359905;19;19919;-64
2024/01/15 10:45:13;;;;;;;;;;;;;;;5.51;70.44;101049.28;7362308;19;19927;-64
2024/01/15 10:47:38;;;;;;;;;;;;;;;5.76;70.28;101060.59;7358973;19;19919;-64
2024/01/15 10:50:06;;;;;;;;;;;;;;;6.01;70.54;101052.91;7363093;19;19946;-64
2024/01/15 10:52:31;;;;;;;;;;;;;;;6.24;70.36;101062.44;7357654;19;19986;-64
2024/01/15 10:54:57;;;;;;;;;;;;;;;6.45;70.41;101056.41;7356253;19;20006;-63
2024/01/15 10:57:27;;;;;;;;;;;;;;;6.68;70.01;101050.31;7358859;19;20502;-63
2024/01/15 10:59:52;;;;;;;;;;;;;;;6.92;70.03;101050.28;7340650;19;19919;-64
2024/01/15 11:02:18;;;;;;;;;;;;;;;7.15;69.58;101051.97;7363606;19;19922;-64
2024/01/15 11:04:43;;;;;;;;;;;;;;;7.39;69.79;101051.00;7363854;19;19956;-64
2024/01/15 11:07:11;;;;;;;;;;;;;;;7.62;69.44;101050.91;7357701;19;20352;-63
2024/01/15 11:09:37;;;;;;;;;;;;;;;7.86;69.44;101053.38;7360922;19;19923;-64
2024/01/15 11:12:12;;;;;;;;;;;;;;;8.10;69.19;101051.47;7362223;19;19942;-64
2024/01/15 11:14:47;;;;;;;;;;;;;;;8.34;69.06;101051.31;7360886;19;19931;-64
2024/01/15 11:17:13;;;;;;;;;;;;;;;8.58;69.10;101045.94;7353598;19;19926;-64
2024/01/15 11:19:50;;;;;;;;;;;;;;;8.81;68.63;101052.66;7359086;19;19926;-64
2024/01/15 11:22:38;;;;;;;;;;;;;;;9.06;68.58;101050.66;7354010;19;19975;-64
2024/01/15 11:25:13;;;;;;;;;;;;;;;9.31;68.07;101046.91;7355570;19;20395;-64
2024/01/15 11:27:47;;;;;;;;;;;;;;;9.51;67.71;101049.25;7361030;19;19919;-64
2024/01/15 11:30:13;;;;;;;;;;;;;;;9.70;68.00;101043.81;7362935;19;20332;-64
2024/01/15 11:32:42;;;;;;;;;;;;;;;9.87;67.90;101044.44;7356619;19;20012;-64
2024/01/15 11:35:08;;;;;;;;;;;;;;;10.03;67.59;101047.66;7359732;19;20259;-64
2024/01/15 11:37:52;;;;;;;;;;;;;;;10.18;67.42;101043.97;7360481;19;20333;-64
2024/01/15 11:40:21;;;;;;;;;;;;;;;10.31;66.92;101035.97;7366725;19;19927;-63
2024/01/15 11:42:48;;;;;;;;;;;;;;;10.42;66.53;101037.53;7357098;19;20320;-64
2024/01/15 11:45:18;;;;;;;;;;;;;;;10.53;67.10;101028.63;7360233;19;19923;-64
2024/01/15 11:48:03;;;;;;;;;;;;;;;10.63;66.49;101024.97;7356599;19;19926;-64
2024/01/15 11:50:29;;;;;;;;;;;;;;;10.76;66.42;101029.97;7360568;19;20725;-64
2024/01/15 11:53:09;;;;;;;;;;;;;;;10.84;66.28;101022.84;7363574;19;19926;-64
2024/01/15 11:55:36;;;;;;;;;;;;;;;10.96;66.36;101025.25;7354955;19;19994;-64
2024/01/15 11:58:02;;;;;;;;;;;;;;;11.06;66.47;101021.56;7327679;19;20353;-64
2024/01/15 12:00:28;;;;;;;;;;;;;;;11.18;66.80;101018.69;7361142;19;20356;-64
2024/01/15 12:02:53;;;;;;;;;;;;;;;11.27;66.46;101019.41;7359502;19;20327;-64
2024/01/15 12:05:19;;;;;;;;;;;;;;;11.36;65.67;101016.63;7361772;19;19923;-64
2024/01/15 12:07:45;;;;;;;;;;;;;;;11.46;66.06;101023.38;7358486;19;19939;-64
2024/01/15 12:10:11;;;;;;;;;;;;;;;11.57;65.93;101024.00;7360510;19;19926;-64
2024/01/15 12:12:42;;;;;;;;;;;;;;;11.65;65.67;101029.91;7358567;19;19939;-64
2024/01/15 12:15:08;;;;;;;;;;;;;;;11.73;65.69;101018.44;7366070;19;19927;-64
2024/01/15 12:17:34;;;;;;;;;;;;;;;11.80;66.03;101027.84;7364218;19;19926;-64
2024/01/15 12:20:00;;;;;;;;;;;;;;;11.85;65.67;101023.41;7370707;19;19930;-64
2024/01/15 12:22:27;;;;;;;;;;;;;;;11.90;65.96;101032.00;7358683;19;20713;-64
2024/01/15 12:24:52;;;;;;;;;;;;;;;11.98;66.05;101024.84;7364709;19;19930;-64
2024/01/15 12:27:18;;;;;;;;;;;;;;;12.08;65.94;101017.66;7366124;19;19990;-64
2024/01/15 12:29:43;;;;;;;;;;;;;;;12.20;65.77;101019.97;7367221;19;20584;-64
2024/01/15 12:32:08;;;;;;;;;;;;;;;12.33;65.94;101020.53;7362587;19;19918;-64
2024/01/15 12:34:33;;;;;;;;;;;;;;;12.48;65.87;101014.91;7368657;19;19931;-64
2024/01/15 12:36:59;;;;;;;;;;;;;;;12.62;65.13;101012.81;7348366;19;20017;-64
2024/01/15 12:39:24;;;;;;;;;;;;;;;12.79;65.30;101014.09;7374297;19;19931;-64